Terminal Aerodrome Forecast
Issued by NWS Knoxville/Tri Cities, TN

Home | Current Version | Previous Version | Text Only | Print | Product List | Glossary On
Versions: 1 2 3 4 5 6 7 8 9 10 11 12 13 14
000
FTUS44 KMRX 272336
TAFTRI
TAF
KTRI 272336Z 2800/2824 19004KT P6SM SCT050 BKN120
     FM280200 22006KT P6SM VCSH SCT050 BKN090
     FM280400 23002KT 5SM -SHRA BKN045 OVC080
      TEMPO 2804/2806 2SM TSRA BR OVC035CB
     FM280700 VRB02KT 6SM BR VCSH SCT030 BKN080
     FM281000 25003KT P6SM SCT040 BKN100
     FM281800 28010KT P6SM VCSH BKN045=

USA.gov is the U.S. government's official web portal to all federal, state and local government web resources and services.